Time,TemperatureF,DewpointF,PressureIn,WindDirection,WindDirectionDegrees,WindSpeedMPH,WindSpeedGustMPH,Humidity,HourlyPrecipIn,Conditions,Clouds,dailyrainin,SolarRadiationWatts/m^2,SoftwareType,DateUTC
2013-09-16 00:02:00,62.0,46.0,-100.00,SE,135,7.0,17.0,56,0.00,,,0.01,0.000000,,2013-09-16 06:02:00,
2013-09-16 00:43:00,62.0,46.0,-100.00,SSE,158,4.0,10.0,55,0.00,,,0.01,0.000000,,2013-09-16 06:43:00,
2013-09-16 00:52:00,62.0,46.0,-100.00,SSE,158,4.0,10.0,55,0.00,,,0.01,0.000000,,2013-09-16 06:52:00,
2013-09-16 01:02:00,62.0,46.0,-100.00,SSE,158,4.0,10.0,55,0.00,,,0.01,0.000000,,2013-09-16 07:02:00,
2013-09-16 01:43:00,62.0,47.0,-100.00,SE,146,8.0,11.0,57,0.00,,,0.01,0.000000,,2013-09-16 07:43:00,
2013-09-16 01:52:00,62.0,47.0,-100.00,SE,146,8.0,11.0,57,0.00,,,0.01,0.000000,,2013-09-16 07:52:00,
2013-09-16 02:02:00,62.0,47.0,-100.00,SE,146,8.0,11.0,57,0.00,,,0.01,0.000000,,2013-09-16 08:02:00,
2013-09-16 02:42:00,61.0,46.0,-100.00,SSW,198,3.0,12.0,58,0.00,,,0.01,0.000000,,2013-09-16 08:42:00,
2013-09-16 02:52:00,61.0,46.0,-100.00,SSW,198,3.0,12.0,58,0.00,,,0.01,0.000000,,2013-09-16 08:52:00,
2013-09-16 03:01:00,61.0,46.0,-100.00,SSW,198,3.0,12.0,58,0.00,,,0.01,0.000000,,2013-09-16 09:01:00,
2013-09-16 03:43:00,56.0,50.0,-100.00,WSW,258,18.0,39.0,79,0.04,,,0.05,0.000000,,2013-09-16 09:43:00,
2013-09-16 03:53:00,56.0,50.0,-100.00,WSW,258,18.0,39.0,79,0.04,,,0.05,0.000000,,2013-09-16 09:53:00,
2013-09-16 04:03:00,56.0,50.0,-100.00,WSW,258,18.0,39.0,79,0.04,,,0.05,0.000000,,2013-09-16 10:03:00,
2013-09-16 04:42:00,55.0,47.0,-100.00,SSW,194,6.0,26.0,74,0.00,,,0.05,0.000000,,2013-09-16 10:42:00,
2013-09-16 04:53:00,55.0,47.0,-100.00,SSW,194,6.0,26.0,74,0.00,,,0.05,0.000000,,2013-09-16 10:53:00,
2013-09-16 05:02:00,55.0,47.0,-100.00,SSW,194,6.0,26.0,74,0.00,,,0.05,0.000000,,2013-09-16 11:02:00,
2013-09-16 05:42:00,56.0,47.0,-100.00,SE,130,6.0,10.0,72,0.00,,,0.05,0.000000,,2013-09-16 11:42:00,
2013-09-16 05:52:00,56.0,47.0,-100.00,SE,130,6.0,10.0,72,0.00,,,0.05,0.000000,,2013-09-16 11:52:00,
2013-09-16 06:01:00,56.0,47.0,-100.00,SE,130,6.0,10.0,72,0.00,,,0.05,0.000000,,2013-09-16 12:01:00,
2013-09-16 06:42:00,57.0,48.0,-100.00,East,86,2.0,7.0,72,0.00,,,0.05,0.000000,,2013-09-16 12:42:00,
2013-09-16 07:42:00,56.0,48.0,-100.00,WSW,248,3.0,5.0,74,-99.99,,,0.05,0.000000,,2013-09-16 13:42:00,
2013-09-16 07:52:00,56.0,48.0,-100.00,WSW,248,3.0,5.0,74,-99.99,,,0.05,0.000000,,2013-09-16 13:52:00,
2013-09-16 08:02:00,56.0,48.0,-100.00,WSW,248,3.0,5.0,74,-99.99,,,0.05,0.000000,,2013-09-16 14:02:00,
2013-09-16 08:42:00,59.0,49.0,-100.00,South,191,4.0,12.0,70,0.00,,,0.05,34.000000,,2013-09-16 14:42:00,
2013-09-16 09:43:00,62.0,50.0,-100.00,SE,139,7.0,10.0,65,-99.99,,,0.05,162.000000,,2013-09-16 15:43:00,
2013-09-16 09:53:00,62.0,50.0,-100.00,SE,139,7.0,10.0,65,-99.99,,,0.05,162.000000,,2013-09-16 15:53:00,
2013-09-16 10:03:00,62.0,50.0,-100.00,SE,139,7.0,10.0,65,-99.99,,,0.05,162.000000,,2013-09-16 16:03:00,
2013-09-16 10:43:00,65.0,53.0,-100.00,ESE,116,6.0,13.0,64,-99.99,,,0.05,309.000000,,2013-09-16 16:43:00,
2013-09-16 10:52:00,65.0,53.0,-100.00,ESE,116,6.0,13.0,64,-99.99,,,0.05,309.000000,,2013-09-16 16:52:00,
2013-09-16 11:02:00,65.0,53.0,-100.00,ESE,116,6.0,13.0,64,-99.99,,,0.05,309.000000,,2013-09-16 17:02:00,
2013-09-16 11:42:00,70.0,53.0,-100.00,ESE,115,7.0,12.0,54,0.00,,,0.05,489.000000,,2013-09-16 17:42:00,
2013-09-16 11:53:00,70.0,53.0,-100.00,ESE,115,7.0,12.0,54,0.00,,,0.05,489.000000,,2013-09-16 17:53:00,
2013-09-16 12:02:00,70.0,53.0,-100.00,ESE,115,7.0,12.0,54,0.00,,,0.05,489.000000,,2013-09-16 18:02:00,
2013-09-16 12:42:00,74.0,49.0,-100.00,West,268,6.0,14.0,42,0.00,,,0.05,739.000000,,2013-09-16 18:42:00,
2013-09-16 12:52:00,74.0,49.0,-100.00,West,268,6.0,14.0,42,0.00,,,0.05,739.000000,,2013-09-16 18:52:00,
2013-09-16 13:01:00,74.0,49.0,-100.00,West,268,6.0,14.0,42,0.00,,,0.05,739.000000,,2013-09-16 19:01:00,
2013-09-16 13:42:00,73.0,47.0,-100.00,West,277,12.0,22.0,40,0.00,,,0.05,854.000000,,2013-09-16 19:42:00,
2013-09-16 13:53:00,73.0,47.0,-100.00,West,277,12.0,22.0,40,0.00,,,0.05,854.000000,,2013-09-16 19:53:00,
2013-09-16 14:03:00,73.0,47.0,-100.00,West,277,12.0,22.0,40,0.00,,,0.05,854.000000,,2013-09-16 20:03:00,
2013-09-16 14:43:00,72.0,43.0,-100.00,West,269,11.0,19.0,35,0.00,,,0.05,694.000000,,2013-09-16 20:43:00,
2013-09-16 14:52:00,72.0,43.0,-100.00,West,269,11.0,19.0,35,0.00,,,0.05,694.000000,,2013-09-16 20:52:00,
2013-09-16 15:02:00,72.0,43.0,-100.00,West,269,11.0,19.0,35,0.00,,,0.05,694.000000,,2013-09-16 21:02:00,
2013-09-16 15:44:00,74.0,45.0,-100.00,West,266,9.0,22.0,36,0.00,,,0.05,691.000000,,2013-09-16 21:44:00,
2013-09-16 15:56:00,74.0,45.0,-100.00,West,266,9.0,22.0,36,0.00,,,0.05,691.000000,,2013-09-16 21:56:00,
2013-09-16 16:04:00,74.0,45.0,-100.00,West,266,9.0,22.0,36,0.00,,,0.05,691.000000,,2013-09-16 22:04:00,
2013-09-16 16:43:00,77.0,37.0,-100.00,WNW,282,11.0,17.0,24,0.00,,,0.05,694.000000,,2013-09-16 22:43:00,
2013-09-16 16:53:00,77.0,37.0,-100.00,WNW,282,11.0,17.0,24,0.00,,,0.05,694.000000,,2013-09-16 22:53:00,
2013-09-16 17:02:00,77.0,37.0,-100.00,WNW,282,11.0,17.0,24,0.00,,,0.05,694.000000,,2013-09-16 23:02:00,
2013-09-16 17:43:00,76.0,33.0,-100.00,West,261,9.0,20.0,21,0.00,,,0.05,562.000000,,2013-09-16 23:43:00,
2013-09-16 17:53:00,76.0,33.0,-100.00,West,261,9.0,20.0,21,0.00,,,0.05,562.000000,,2013-09-16 23:53:00,
2013-09-16 18:02:00,76.0,33.0,-100.00,West,261,9.0,20.0,21,0.00,,,0.05,562.000000,,2013-09-17 00:02:00,
2013-09-16 18:42:00,74.0,32.0,-100.00,West,267,8.0,15.0,21,0.00,,,-99.99,380.000000,,2013-09-17 00:42:00,
2013-09-16 18:52:00,74.0,32.0,-100.00,West,267,8.0,15.0,21,0.00,,,-99.99,380.000000,,2013-09-17 00:52:00,
2013-09-16 19:02:00,74.0,32.0,-100.00,West,267,8.0,15.0,21,0.00,,,-99.99,380.000000,,2013-09-17 01:02:00,
2013-09-16 19:42:00,69.0,33.0,-100.00,West,264,12.0,20.0,26,0.00,,,0.05,163.000000,,2013-09-17 01:42:00,
2013-09-16 19:52:00,69.0,33.0,-100.00,West,264,12.0,20.0,26,0.00,,,0.05,163.000000,,2013-09-17 01:52:00,
2013-09-16 20:03:00,69.0,33.0,-100.00,West,264,12.0,20.0,26,0.00,,,0.05,163.000000,,2013-09-17 02:03:00,
2013-09-16 20:42:00,65.0,43.0,-100.00,West,268,12.0,24.0,44,0.00,,,0.05,8.000000,,2013-09-17 02:42:00,
2013-09-16 21:45:00,63.0,44.0,-100.00,West,265,12.0,23.0,50,0.00,,,0.04,0.000000,,2013-09-17 03:45:00,
2013-09-16 23:42:00,59.0,45.0,-100.00,West,268,9.0,17.0,59,0.00,,,0.04,0.000000,,2013-09-17 05:42:00,